Time;durP1;ratioP1;P1;durP2;ratioP2;P2;SDS_P1;SDS_P2;PMS_P1;PMS_P2;Temp;Humidity;BMP_temperature;BMP_pressure;BME280_temperature;BME280_humidity;BME280_pressure;Samples;Min_cycle;Max_cycle;Signal;HPM_P1;HPM_P2
2023/08/18 00:00:00;;;;;;;20.05;9.63;;;;;;;;;;5018183;28;20388;-69
2023/08/18 00:02:26;;;;;;;19.92;8.18;;;;;;;;;;5035446;28;20025;-68
2023/08/18 00:04:52;;;;;;;22.55;9.98;;;;;;;;;;5034457;28;20041;-68
2023/08/18 00:07:18;;;;;;;17.52;9.13;;;;;;;;;;5035557;28;20091;-68
2023/08/18 00:09:44;;;;;;;15.93;8.43;;;;;;;;;;5018163;28;20061;-68
2023/08/18 00:12:10;;;;;;;20.08;9.63;;;;;;;;;;5035472;28;20038;-68
2023/08/18 00:14:36;;;;;;;20.65;10.07;;;;;;;;;;5034254;28;20077;-68
2023/08/18 00:17:01;;;;;;;31.98;11.82;;;;;;;;;;5018150;28;20029;-68
2023/08/18 00:19:27;;;;;;;27.02;12.02;;;;;;;;;;5035253;28;20055;-68
2023/08/18 00:21:53;;;;;;;34.17;12.82;;;;;;;;;;5035189;28;20111;-68
2023/08/18 00:24:18;;;;;;;26.35;12.23;;;;;;;;;;5033963;28;20044;-68
2023/08/18 00:26:45;;;;;;;36.40;12.98;;;;;;;;;;5035053;28;20134;-68
2023/08/18 00:29:12;;;;;;;22.85;11.95;;;;;;;;;;5017877;28;20044;-69
2023/08/18 00:31:38;;;;;;;23.27;12.05;;;;;;;;;;5034030;28;20034;-68
2023/08/18 00:34:04;;;;;;;21.10;11.55;;;;;;;;;;5017537;28;20466;-69
2023/08/18 00:36:31;;;;;;;24.65;11.15;;;;;;;;;;5035001;28;20071;-69
2023/08/18 00:38:58;;;;;;;26.27;10.32;;;;;;;;;;5033942;28;20456;-69
2023/08/18 00:41:26;;;;;;;30.10;12.77;;;;;;;;;;5033556;28;20108;-68
2023/08/18 00:43:51;;;;;;;25.85;11.13;;;;;;;;;;5017404;28;20065;-68
2023/08/18 00:46:18;;;;;;;28.30;12.35;;;;;;;;;;5034652;28;20069;-68
2023/08/18 00:48:44;;;;;;;20.92;10.55;;;;;;;;;;5034510;28;20120;-68
2023/08/18 00:51:11;;;;;;;30.85;11.00;;;;;;;;;;5034672;28;20041;-69
2023/08/18 00:53:39;;;;;;;26.85;11.77;;;;;;;;;;5034317;28;20053;-68
2023/08/18 00:56:05;;;;;;;27.80;11.20;;;;;;;;;;5035128;28;20408;-68
2023/08/18 00:58:31;;;;;;;23.25;9.93;;;;;;;;;;5035998;28;20090;-68
2023/08/18 01:00:57;;;;;;;16.40;8.75;;;;;;;;;;5017393;28;20033;-68
2023/08/18 01:03:23;;;;;;;17.92;8.70;;;;;;;;;;5033358;28;20471;-69
2023/08/18 01:05:49;;;;;;;24.98;9.65;;;;;;;;;;5016883;28;20033;-68
2023/08/18 01:08:14;;;;;;;21.90;9.45;;;;;;;;;;5018207;28;20049;-68
2023/08/18 01:11:03;;;;;;;17.27;9.27;;;;;;;;;;5036153;28;20033;-69
2023/08/18 01:13:46;;;;;;;19.30;8.68;;;;;;;;;;5034825;28;20131;-68
2023/08/18 01:16:16;;;;;;;20.95;8.75;;;;;;;;;;5033816;28;20476;-68
2023/08/18 01:18:42;;;;;;;18.73;8.38;;;;;;;;;;5036182;28;20076;-69
2023/08/18 01:21:10;;;;;;;13.45;7.88;;;;;;;;;;5019464;28;20037;-68
2023/08/18 01:23:37;;;;;;;18.75;8.35;;;;;;;;;;5035421;28;20039;-68
2023/08/18 01:26:02;;;;;;;17.42;8.07;;;;;;;;;;5035212;28;20130;-68
2023/08/18 01:28:28;;;;;;;18.73;8.30;;;;;;;;;;5034249;28;20420;-68
2023/08/18 01:30:55;;;;;;;14.80;8.02;;;;;;;;;;5017524;28;20137;-68
2023/08/18 01:33:24;;;;;;;14.77;8.25;;;;;;;;;;5034364;28;20119;-68
2023/08/18 01:35:52;;;;;;;17.42;8.20;;;;;;;;;;5018060;28;20087;-68
2023/08/18 01:38:19;;;;;;;17.23;8.50;;;;;;;;;;5033567;28;20029;-68
2023/08/18 01:40:46;;;;;;;18.15;8.30;;;;;;;;;;5032683;28;20061;-68
2023/08/18 01:43:12;;;;;;;15.55;8.30;;;;;;;;;;5032683;28;20463;-68
2023/08/18 01:45:37;;;;;;;17.15;8.48;;;;;;;;;;5033069;28;20059;-68
2023/08/18 01:48:03;;;;;;;16.40;8.15;;;;;;;;;;5033639;28;20044;-68
2023/08/18 01:50:29;;;;;;;20.42;7.75;;;;;;;;;;5016233;28;20049;-68
2023/08/18 01:52:55;;;;;;;15.88;6.68;;;;;;;;;;5033473;28;20075;-68
2023/08/18 01:55:21;;;;;;;19.05;8.45;;;;;;;;;;5032235;28;20057;-68
2023/08/18 01:57:47;;;;;;;20.25;7.60;;;;;;;;;;5015853;28;20029;-68
2023/08/18 02:00:13;;;;;;;16.90;7.43;;;;;;;;;;5032589;28;20103;-68
2023/08/18 02:02:39;;;;;;;18.52;7.13;;;;;;;;;;5032711;28;20030;-68
2023/08/18 02:05:05;;;;;;;19.63;8.63;;;;;;;;;;5032370;28;20098;-69
2023/08/18 02:07:31;;;;;;;17.23;7.93;;;;;;;;;;5033284;28;20030;-68
2023/08/18 02:09:56;;;;;;;18.17;6.95;;;;;;;;;;5033574;28;20037;-68
2023/08/18 02:12:23;;;;;;;18.63;8.30;;;;;;;;;;5032288;28;20029;-68
2023/08/18 02:14:49;;;;;;;20.73;8.40;;;;;;;;;;5032851;28;20099;-68
2023/08/18 02:17:15;;;;;;;20.02;8.15;;;;;;;;;;5032842;28;20037;-68
2023/08/18 02:19:41;;;;;;;26.75;9.20;;;;;;;;;;5033231;28;20040;-68
2023/08/18 02:22:10;;;;;;;24.90;8.95;;;;;;;;;;5033434;28;20041;-68
2023/08/18 02:24:35;;;;;;;18.63;8.68;;;;;;;;;;5033274;28;20044;-68
2023/08/18 02:27:02;;;;;;;15.15;8.07;;;;;;;;;;5031746;28;20146;-68
2023/08/18 02:29:28;;;;;;;23.90;8.70;;;;;;;;;;5032752;28;20439;-68
2023/08/18 02:31:54;;;;;;;15.02;7.43;;;;;;;;;;5032800;28;20133;-68
2023/08/18 02:34:20;;;;;;;18.23;8.27;;;;;;;;;;5031595;28;20373;-68
2023/08/18 02:36:46;;;;;;;25.52;9.77;;;;;;;;;;5032483;28;20083;-69
2023/08/18 02:39:11;;;;;;;24.10;9.38;;;;;;;;;;5032839;28;20033;-69
2023/08/18 02:41:38;;;;;;;32.78;10.07;;;;;;;;;;5033180;28;20503;-69
2023/08/18 02:44:03;;;;;;;22.60;10.35;;;;;;;;;;5033562;28;20049;-69
2023/08/18 02:46:29;;;;;;;24.35;9.82;;;;;;;;;;5033840;28;20064;-68
2023/08/18 02:48:54;;;;;;;24.25;10.23;;;;;;;;;;5048491;28;20395;-68
2023/08/18 02:51:20;;;;;;;25.02;10.10;;;;;;;;;;5031365;28;20033;-68
2023/08/18 02:53:48;;;;;;;21.08;9.77;;;;;;;;;;5031207;28;20549;-68
2023/08/18 02:56:15;;;;;;;16.02;8.88;;;;;;;;;;5033124;28;20041;-69
2023/08/18 02:58:41;;;;;;;21.42;9.80;;;;;;;;;;5032857;28;20056;-69
2023/08/18 03:01:08;;;;;;;21.52;9.23;;;;;;;;;;5032141;28;20560;-68
2023/08/18 03:03:34;;;;;;;20.15;10.10;;;;;;;;;;5031349;28;20504;-69
2023/08/18 03:06:01;;;;;;;26.45;9.73;;;;;;;;;;5030963;28;20415;-69
2023/08/18 03:08:26;;;;;;;24.13;8.70;;;;;;;;;;5032043;28;20099;-68
2023/08/18 03:10:59;;;;;;;23.40;9.15;;;;;;;;;;5032084;28;20045;-68
2023/08/18 03:13:25;;;;;;;19.77;9.13;;;;;;;;;;5031075;28;20053;-68
2023/08/18 03:15:51;;;;;;;14.63;8.30;;;;;;;;;;5031941;28;20048;-68
2023/08/18 03:18:17;;;;;;;20.08;8.90;;;;;;;;;;5031303;28;20356;-69
2023/08/18 03:20:45;;;;;;;19.17;9.27;;;;;;;;;;5031338;28;20045;-68
2023/08/18 03:23:14;;;;;;;22.50;9.32;;;;;;;;;;5032145;28;20037;-68
2023/08/18 03:25:41;;;;;;;20.20;8.38;;;;;;;;;;5014803;28;20069;-68
2023/08/18 03:28:07;;;;;;;16.65;8.35;;;;;;;;;;5031032;28;20026;-68
2023/08/18 03:30:39;;;;;;;11.00;7.07;;;;;;;;;;5031832;28;20179;-68
2023/08/18 03:33:06;;;;;;;21.92;7.88;;;;;;;;;;5014870;28;20034;-68
2023/08/18 03:35:35;;;;;;;20.73;8.13;;;;;;;;;;5031216;28;20041;-68
2023/08/18 03:38:01;;;;;;;22.20;9.85;;;;;;;;;;5031110;28;20467;-68
2023/08/18 03:40:27;;;;;;;16.67;8.57;;;;;;;;;;5013923;28;20030;-68
2023/08/18 03:42:53;;;;;;;18.90;8.02;;;;;;;;;;5031038;28;20079;-68
2023/08/18 03:45:19;;;;;;;20.40;7.90;;;;;;;;;;5031028;28;20045;-68
2023/08/18 03:47:45;;;;;;;17.92;8.13;;;;;;;;;;5031897;28;20033;-68
2023/08/18 03:50:13;;;;;;;19.63;8.85;;;;;;;;;;5030915;28;20041;-68
2023/08/18 03:52:39;;;;;;;11.82;8.00;;;;;;;;;;5014339;28;20029;-68
2023/08/18 03:55:05;;;;;;;18.55;7.93;;;;;;;;;;5030651;28;21259;-69
2023/08/18 03:57:30;;;;;;;21.17;8.23;;;;;;;;;;5030860;28;20038;-68
2023/08/18 03:59:56;;;;;;;18.05;8.38;;;;;;;;;;5031785;28;20099;-69
2023/08/18 04:02:23;;;;;;;15.35;8.07;;;;;;;;;;5032169;28;20507;-68
2023/08/18 04:04:48;;;;;;;16.83;8.18;;;;;;;;;;4998909;28;20041;-68
2023/08/18 04:07:14;;;;;;;21.27;8.27;;;;;;;;;;5032712;28;20052;-68
2023/08/18 04:09:40;;;;;;;17.00;8.65;;;;;;;;;;5031333;28;20038;-69
2023/08/18 04:12:06;;;;;;;16.20;8.23;;;;;;;;;;5030459;28;20072;-68
2023/08/18 04:14:32;;;;;;;22.15;9.30;;;;;;;;;;4997703;28;20068;-69
2023/08/18 04:16:58;;;;;;;21.67;10.10;;;;;;;;;;5030725;28;20072;-69
2023/08/18 04:19:24;;;;;;;15.27;8.00;;;;;;;;;;5034058;28;20060;-68
2023/08/18 04:21:49;;;;;;;18.88;9.10;;;;;;;;;;5035983;28;20034;-68
2023/08/18 04:24:15;;;;;;;21.85;9.30;;;;;;;;;;5019264;28;20084;-69
2023/08/18 04:26:41;;;;;;;17.65;9.10;;;;;;;;;;5035997;28;20159;-68
2023/08/18 04:29:07;;;;;;;21.23;9.30;;;;;;;;;;5035075;28;20057;-68
2023/08/18 04:31:33;;;;;;;21.58;8.70;;;;;;;;;;5034866;28;20053;-69
2023/08/18 04:34:07;;;;;;;25.60;8.73;;;;;;;;;;5035831;28;20525;-69
2023/08/18 04:36:33;;;;;;;18.25;8.63;;;;;;;;;;5034652;28;20037;-69
2023/08/18 04:38:59;;;;;;;18.60;8.65;;;;;;;;;;5034563;28;20349;-69
2023/08/18 04:41:31;;;;;;;21.50;8.65;;;;;;;;;;5017436;28;20053;-69
2023/08/18 04:43:57;;;;;;;19.42;8.98;;;;;;;;;;5050244;28;20068;-68
2023/08/18 04:46:26;;;;;;;24.40;9.38;;;;;;;;;;5033357;28;20038;-69
2023/08/18 04:48:53;;;;;;;20.73;9.35;;;;;;;;;;5033471;28;20038;-68
2023/08/18 04:51:19;;;;;;;28.83;9.50;;;;;;;;;;5017400;28;20041;-68
2023/08/18 04:53:45;;;;;;;27.77;9.95;;;;;;;;;;5033057;28;20171;-68
2023/08/18 04:56:11;;;;;;;32.53;10.15;;;;;;;;;;5033908;28;20124;-68
2023/08/18 04:58:37;;;;;;;29.15;9.88;;;;;;;;;;5017075;28;20081;-69
2023/08/18 05:01:03;;;;;;;31.23;10.77;;;;;;;;;;5016939;28;20035;-68
2023/08/18 05:03:30;;;;;;;29.85;10.63;;;;;;;;;;5033485;28;20464;-68
2023/08/18 05:05:58;;;;;;;34.83;10.77;;;;;;;;;;5016605;28;20091;-68
2023/08/18 05:08:24;;;;;;;27.63;10.98;;;;;;;;;;5035029;28;20041;-68
2023/08/18 05:10:50;;;;;;;27.00;10.93;;;;;;;;;;5034419;28;20033;-68
2023/08/18 05:13:16;;;;;;;37.40;12.10;;;;;;;;;;5033030;28;20052;-72
2023/08/18 05:15:41;;;;;;;37.63;12.05;;;;;;;;;;5032852;28;20033;-69
2023/08/18 05:18:07;;;;;;;28.55;11.25;;;;;;;;;;5034081;28;20393;-68
2023/08/18 05:20:32;;;;;;;30.00;10.52;;;;;;;;;;5034166;28;20097;-68
2023/08/18 05:22:58;;;;;;;26.45;9.40;;;;;;;;;;5033223;28;20044;-68
2023/08/18 05:25:24;;;;;;;24.55;11.20;;;;;;;;;;5054409;28;20104;-69
2023/08/18 05:27:50;;;;;;;28.50;10.68;;;;;;;;;;5055474;28;20047;-68
2023/08/18 05:30:15;;;;;;;28.27;10.90;;;;;;;;;;5053118;28;20036;-69
2023/08/18 05:32:41;;;;;;;27.10;9.68;;;;;;;;;;5054121;28;20449;-69
2023/08/18 05:35:06;;;;;;;20.95;10.05;;;;;;;;;;5052487;28;20372;-69
2023/08/18 05:37:33;;;;;;;29.40;10.32;;;;;;;;;;5053415;28;20523;-68
2023/08/18 05:39:59;;;;;;;22.45;10.20;;;;;;;;;;5053653;28;20060;-69
2023/08/18 05:42:25;;;;;;;30.95;10.07;;;;;;;;;;5053120;28;20494;-69
2023/08/18 05:44:50;;;;;;;24.40;9.32;;;;;;;;;;5053722;28;20091;-69
2023/08/18 05:47:16;;;;;;;26.33;10.07;;;;;;;;;;5053433;28;20059;-69
2023/08/18 05:49:42;;;;;;;25.30;9.25;;;;;;;;;;5054530;28;20052;-69
2023/08/18 05:52:08;;;;;;;30.45;10.82;;;;;;;;;;5020312;28;20047;-69
2023/08/18 05:54:34;;;;;;;29.52;10.02;;;;;;;;;;5053122;28;20053;-68
2023/08/18 05:57:00;;;;;;;37.63;10.23;;;;;;;;;;5053070;28;20383;-69
2023/08/18 05:59:25;;;;;;;35.88;10.15;;;;;;;;;;5053218;28;20043;-68
2023/08/18 06:01:52;;;;;;;26.55;10.70;;;;;;;;;;5053478;28;20479;-69
2023/08/18 06:04:18;;;;;;;43.60;11.57;;;;;;;;;;5053474;28;20040;-69
2023/08/18 06:06:43;;;;;;;26.48;9.38;;;;;;;;;;5053162;28;20040;-69
2023/08/18 06:09:09;;;;;;;26.73;9.43;;;;;;;;;;5053923;28;20079;-69
2023/08/18 06:11:35;;;;;;;32.60;9.57;;;;;;;;;;5054858;28;20040;-69
2023/08/18 06:14:01;;;;;;;40.35;10.05;;;;;;;;;;5054925;28;20040;-69
2023/08/18 06:16:26;;;;;;;28.15;9.75;;;;;;;;;;5055978;28;20071;-69
2023/08/18 06:18:52;;;;;;;26.95;10.30;;;;;;;;;;5053393;28;20048;-69
2023/08/18 06:21:17;;;;;;;21.17;8.98;;;;;;;;;;5053368;28;20056;-69
2023/08/18 06:23:44;;;;;;;25.98;9.07;;;;;;;;;;5052846;28;20055;-69
2023/08/18 06:26:10;;;;;;;23.45;9.00;;;;;;;;;;5053159;28;20115;-69
2023/08/18 06:28:35;;;;;;;21.25;7.85;;;;;;;;;;5051702;28;20352;-69
2023/08/18 06:31:04;;;;;;;23.83;7.80;;;;;;;;;;5052459;28;20037;-69
2023/08/18 06:33:30;;;;;;;22.97;7.60;;;;;;;;;;5052287;28;20044;-69
2023/08/18 06:35:57;;;;;;;11.88;7.03;;;;;;;;;;5035055;28;20175;-69
2023/08/18 06:38:23;;;;;;;22.95;7.43;;;;;;;;;;5052435;28;20594;-69
2023/08/18 06:40:49;;;;;;;22.90;7.25;;;;;;;;;;5051193;28;20151;-69
2023/08/18 06:43:14;;;;;;;18.20;6.68;;;;;;;;;;5051873;28;20048;-69
2023/08/18 06:45:40;;;;;;;25.92;7.38;;;;;;;;;;5051539;28;20462;-69
2023/08/18 06:48:05;;;;;;;19.52;6.53;;;;;;;;;;5051115;28;20406;-70
2023/08/18 06:50:31;;;;;;;29.83;7.15;;;;;;;;;;5050966;28;20098;-69
2023/08/18 06:52:56;;;;;;;16.10;6.60;;;;;;;;;;5052157;28;20037;-70
2023/08/18 06:55:22;;;;;;;20.70;5.95;;;;;;;;;;5052031;28;20132;-69
2023/08/18 06:57:48;;;;;;;17.35;6.60;;;;;;;;;;5052131;28;20498;-69
2023/08/18 07:00:15;;;;;;;26.17;6.70;;;;;;;;;;5018094;28;20127;-70
2023/08/18 07:02:40;;;;;;;12.25;5.68;;;;;;;;;;5051338;28;20074;-69
2023/08/18 07:05:06;;;;;;;19.10;6.60;;;;;;;;;;5051373;28;20033;-70
2023/08/18 07:07:33;;;;;;;18.48;5.90;;;;;;;;;;5052023;28;20036;-69
2023/08/18 07:09:59;;;;;;;12.55;5.57;;;;;;;;;;5051088;28;20041;-69
2023/08/18 07:12:25;;;;;;;13.50;5.53;;;;;;;;;;5052090;28;20029;-69
2023/08/18 07:14:52;;;;;;;17.00;5.25;;;;;;;;;;5051002;28;20041;-70
2023/08/18 07:17:18;;;;;;;8.85;5.22;;;;;;;;;;5069696;28;20040;-69
2023/08/18 07:19:43;;;;;;;8.77;5.47;;;;;;;;;;5070631;28;20125;-69
2023/08/18 07:22:09;;;;;;;17.75;5.82;;;;;;;;;;5069892;28;20045;-70
2023/08/18 07:24:35;;;;;;;12.05;5.65;;;;;;;;;;5020069;28;20036;-69
2023/08/18 07:27:01;;;;;;;14.23;4.82;;;;;;;;;;5069823;28;20048;-70
2023/08/18 07:29:27;;;;;;;10.98;5.22;;;;;;;;;;5020279;28;20128;-70
2023/08/18 07:31:53;;;;;;;10.32;4.57;;;;;;;;;;5069781;28;20127;-70
2023/08/18 07:34:18;;;;;;;12.38;4.60;;;;;;;;;;5052778;28;20455;-70
2023/08/18 07:36:44;;;;;;;9.02;3.90;;;;;;;;;;5069430;28;20143;-71
2023/08/18 07:39:10;;;;;;;10.13;4.18;;;;;;;;;;5053180;28;20485;-70
2023/08/18 07:41:40;;;;;;;9.95;4.57;;;;;;;;;;5052523;28;20053;-71
2023/08/18 07:44:08;;;;;;;12.75;4.22;;;;;;;;;;5036190;28;20044;-71
2023/08/18 07:46:34;;;;;;;9.43;3.88;;;;;;;;;;5036215;28;20129;-71
2023/08/18 07:49:00;;;;;;;10.55;4.20;;;;;;;;;;5050500;28;20379;-71
2023/08/18 07:51:25;;;;;;;8.60;3.50;;;;;;;;;;5033896;28;20116;-71
2023/08/18 07:53:51;;;;;;;10.50;3.80;;;;;;;;;;5054671;28;20049;-71
2023/08/18 07:56:16;;;;;;;14.32;3.70;;;;;;;;;;5055383;28;20478;-70
2023/08/18 07:58:42;;;;;;;9.32;3.70;;;;;;;;;;5054194;28;20079;-70
2023/08/18 08:01:09;;;;;;;14.80;3.90;;;;;;;;;;5055130;28;20174;-71
2023/08/18 08:03:35;;;;;;;6.68;3.38;;;;;;;;;;5055219;28;20037;-71
2023/08/18 08:06:04;;;;;;;14.52;3.80;;;;;;;;;;5054418;28;20364;-70
2023/08/18 08:08:30;;;;;;;12.98;3.35;;;;;;;;;;5054094;28;20029;-71
2023/08/18 08:10:56;;;;;;;9.93;3.42;;;;;;;;;;5054685;28;20041;-71
2023/08/18 08:13:22;;;;;;;13.68;3.42;;;;;;;;;;5053934;28;20099;-71
2023/08/18 08:15:48;;;;;;;8.75;3.17;;;;;;;;;;5036886;28;20090;-71
2023/08/18 08:18:15;;;;;;;12.60;3.78;;;;;;;;;;5054741;28;20048;-72
2023/08/18 08:20:41;;;;;;;8.90;3.63;;;;;;;;;;5053725;28;20048;-72
2023/08/18 08:23:07;;;;;;;14.90;3.33;;;;;;;;;;5037188;28;20029;-72
2023/08/18 08:25:33;;;;;;;14.32;3.60;;;;;;;;;;5037187;28;20114;-71
2023/08/18 08:27:59;;;;;;;11.48;3.58;;;;;;;;;;5054131;28;20124;-71
2023/08/18 08:30:25;;;;;;;11.52;3.75;;;;;;;;;;5020492;28;20136;-71
2023/08/18 08:32:50;;;;;;;13.18;3.55;;;;;;;;;;5037005;28;20055;-71
2023/08/18 08:35:16;;;;;;;18.42;3.97;;;;;;;;;;5054795;28;20621;-71
2023/08/18 08:37:43;;;;;;;19.95;3.90;;;;;;;;;;5036879;28;20025;-71
2023/08/18 08:40:18;;;;;;;15.98;4.07;;;;;;;;;;5053662;28;20043;-71
2023/08/18 08:42:44;;;;;;;18.70;5.22;;;;;;;;;;5054317;28;20533;-71
2023/08/18 08:45:10;;;;;;;26.70;4.68;;;;;;;;;;5054516;28;20080;-71
2023/08/18 08:47:37;;;;;;;22.00;4.70;;;;;;;;;;5020588;28;20044;-71
2023/08/18 08:50:03;;;;;;;15.80;4.03;;;;;;;;;;5053736;28;20033;-70
2023/08/18 08:52:35;;;;;;;26.83;4.70;;;;;;;;;;5037328;28;20044;-71
2023/08/18 08:55:02;;;;;;;17.73;4.78;;;;;;;;;;5020655;28;20037;-71
2023/08/18 08:57:29;;;;;;;15.63;4.45;;;;;;;;;;5054525;28;20037;-71
2023/08/18 08:59:55;;;;;;;19.77;4.70;;;;;;;;;;5053272;28;20044;-71
2023/08/18 09:02:21;;;;;;;11.13;3.92;;;;;;;;;;5053262;28;20036;-71
2023/08/18 09:04:46;;;;;;;12.77;4.38;;;;;;;;;;5052242;28;20076;-71
2023/08/18 09:07:13;;;;;;;12.52;4.10;;;;;;;;;;5053032;28;20460;-71
2023/08/18 09:09:39;;;;;;;12.77;4.53;;;;;;;;;;5020248;28;20033;-70
2023/08/18 09:12:07;;;;;;;13.80;4.63;;;;;;;;;;5053153;28;20059;-71
2023/08/18 09:14:34;;;;;;;13.30;4.03;;;;;;;;;;5020304;28;20040;-71
2023/08/18 09:17:01;;;;;;;;;;;;;;;;;;5053678;28;20127;-71
2023/08/18 09:19:26;;;;;;;19.03;4.30;;;;;;;;;;5053817;28;20359;-71
2023/08/18 09:21:56;;;;;;;11.98;3.90;;;;;;;;;;5036240;28;20424;-71
2023/08/18 09:24:21;;;;;;;12.68;4.22;;;;;;;;;;5053502;28;20048;-70
2023/08/18 09:26:48;;;;;;;14.88;3.92;;;;;;;;;;5052507;28;20033;-70
2023/08/18 09:29:14;;;;;;;16.58;4.30;;;;;;;;;;5035957;28;20119;-71
2023/08/18 09:31:40;;;;;;;16.88;4.85;;;;;;;;;;5053873;28;20037;-70
2023/08/18 09:34:06;;;;;;;14.18;5.10;;;;;;;;;;5052586;28;20435;-70
2023/08/18 09:36:31;;;;;;;21.65;5.45;;;;;;;;;;5053329;28;20037;-70
2023/08/18 09:38:57;;;;;;;18.70;4.95;;;;;;;;;;5052523;28;20037;-70
2023/08/18 09:41:23;;;;;;;17.63;5.57;;;;;;;;;;5019077;28;20508;-70
2023/08/18 09:43:49;;;;;;;17.35;4.90;;;;;;;;;;5053069;28;20045;-70
2023/08/18 09:46:16;;;;;;;19.98;5.10;;;;;;;;;;5053109;28;20067;-70
2023/08/18 09:48:47;;;;;;;23.25;5.85;;;;;;;;;;5052291;28;20074;-70
2023/08/18 09:51:15;;;;;;;18.73;5.20;;;;;;;;;;5052555;28;20037;-70
2023/08/18 09:53:45;;;;;;;14.38;5.32;;;;;;;;;;5035898;28;20429;-70
2023/08/18 09:56:13;;;;;;;16.13;5.57;;;;;;;;;;5053013;28;20037;-70
2023/08/18 09:58:38;;;;;;;14.35;5.38;;;;;;;;;;5053172;28;20060;-70
2023/08/18 10:01:05;;;;;;;16.98;5.57;;;;;;;;;;5053338;28;20045;-70
2023/08/18 10:03:34;;;;;;;16.27;5.20;;;;;;;;;;5052986;28;20114;-69
2023/08/18 10:06:00;;;;;;;14.88;5.65;;;;;;;;;;5053394;28;20048;-69
2023/08/18 10:08:26;;;;;;;20.55;5.90;;;;;;;;;;5053140;28;20058;-70
2023/08/18 10:10:52;;;;;;;22.70;6.43;;;;;;;;;;5053143;28;20140;-69
2023/08/18 10:13:18;;;;;;;22.00;6.18;;;;;;;;;;5052917;28;20037;-69
2023/08/18 10:15:44;;;;;;;24.05;6.53;;;;;;;;;;5051188;28;20037;-69
2023/08/18 10:18:11;;;;;;;20.38;6.05;;;;;;;;;;5052891;28;20029;-69
2023/08/18 10:20:50;;;;;;;22.58;6.45;;;;;;;;;;5053129;28;20041;-70
2023/08/18 10:23:16;;;;;;;24.20;6.77;;;;;;;;;;5051551;28;20468;-69
2023/08/18 10:25:49;;;;;;;37.90;7.88;;;;;;;;;;5052583;28;20040;-69
2023/08/18 10:28:17;;;;;;;18.73;7.32;;;;;;;;;;5052595;28;20044;-70
2023/08/18 10:30:49;;;;;;;18.42;6.57;;;;;;;;;;5051472;28;20076;-69
2023/08/18 10:33:26;;;;;;;19.75;7.20;;;;;;;;;;5051858;28;20041;-69
2023/08/18 10:35:55;;;;;;;15.73;6.80;;;;;;;;;;5051492;28;20033;-70
2023/08/18 10:38:25;;;;;;;21.35;6.72;;;;;;;;;;5051720;28;20040;-69
2023/08/18 10:40:51;;;;;;;14.88;6.47;;;;;;;;;;5052247;28;20371;-69
2023/08/18 10:43:17;;;;;;;25.05;6.45;;;;;;;;;;5034644;28;20033;-69
2023/08/18 10:45:48;;;;;;;18.42;6.18;;;;;;;;;;5051193;28;20041;-69
2023/08/18 10:48:14;;;;;;;18.98;6.13;;;;;;;;;;5052511;28;20467;-69
2023/08/18 10:50:41;;;;;;;18.08;6.05;;;;;;;;;;5002253;28;20036;-70
2023/08/18 10:53:11;;;;;;;15.82;5.97;;;;;;;;;;5051432;28;20045;-70
2023/08/18 10:55:37;;;;;;;23.08;5.95;;;;;;;;;;5052392;28;20032;-70
2023/08/18 10:58:03;;;;;;;18.33;6.00;;;;;;;;;;5051131;28;20033;-69
2023/08/18 11:00:33;;;;;;;15.48;6.05;;;;;;;;;;5051179;28;20037;-69
2023/08/18 11:02:58;;;;;;;;;;;;;;;;;;5052182;28;20066;-69
2023/08/18 11:05:24;;;;;;;23.20;5.80;;;;;;;;;;5050996;28;20033;-69
2023/08/18 11:07:51;;;;;;;22.30;6.65;;;;;;;;;;5051150;28;20360;-69
2023/08/18 11:10:21;;;;;;;24.58;6.88;;;;;;;;;;5017937;28;20132;-69
2023/08/18 11:12:48;;;;;;;23.10;6.40;;;;;;;;;;5052059;28;20107;-69
2023/08/18 11:15:14;;;;;;;19.05;6.38;;;;;;;;;;5051111;28;20378;-69
2023/08/18 11:17:41;;;;;;;16.73;5.65;;;;;;;;;;5051389;28;20444;-69
2023/08/18 11:20:11;;;;;;;26.67;6.10;;;;;;;;;;5034314;28;20121;-69
2023/08/18 11:22:38;;;;;;;15.80;6.68;;;;;;;;;;5050505;28;20043;-69
2023/08/18 11:25:04;;;;;;;19.30;6.03;;;;;;;;;;5017684;28;20041;-69
2023/08/18 11:27:31;;;;;;;19.98;6.20;;;;;;;;;;5051368;28;20040;-70
2023/08/18 11:29:58;;;;;;;21.67;5.75;;;;;;;;;;5050601;28;20119;-69
2023/08/18 11:32:24;;;;;;;15.85;6.05;;;;;;;;;;5033903;28;20059;-69
2023/08/18 11:34:50;;;;;;;20.52;6.13;;;;;;;;;;5036437;28;20040;-69
2023/08/18 11:37:19;;;;;;;13.70;6.60;;;;;;;;;;5070051;28;20051;-69
2023/08/18 11:39:45;;;;;;;22.80;7.03;;;;;;;;;;5053086;28;20512;-69
2023/08/18 11:42:12;;;;;;;18.52;6.55;;;;;;;;;;5053424;28;20122;-70
2023/08/18 11:44:38;;;;;;;23.98;7.07;;;;;;;;;;5072341;28;20056;-69
2023/08/18 11:47:06;;;;;;;19.52;6.75;;;;;;;;;;5073796;28;20112;-69
2023/08/18 11:49:31;;;;;;;16.30;6.63;;;;;;;;;;5056662;28;20044;-69
2023/08/18 11:51:58;;;;;;;22.88;6.05;;;;;;;;;;5072930;28;20611;-69
2023/08/18 11:54:24;;;;;;;16.42;5.60;;;;;;;;;;5070717;28;20047;-69
2023/08/18 11:56:51;;;;;;;17.73;5.97;;;;;;;;;;5070080;28;20052;-69
2023/08/18 11:59:20;;;;;;;18.17;6.03;;;;;;;;;;5020409;28;20039;-69
2023/08/18 12:01:46;;;;;;;9.45;5.32;;;;;;;;;;5052761;28;20044;-69
2023/08/18 12:04:12;;;;;;;10.65;5.35;;;;;;;;;;5069738;28;20403;-70
2023/08/18 12:06:39;;;;;;;14.43;6.13;;;;;;;;;;5033887;28;20072;-69
2023/08/18 12:09:12;;;;;;;15.27;5.53;;;;;;;;;;5051314;28;20091;-70
2023/08/18 12:11:38;;;;;;;16.80;5.38;;;;;;;;;;5033672;28;20155;-69
2023/08/18 12:14:05;;;;;;;18.05;5.60;;;;;;;;;;5050153;28;20033;-69
2023/08/18 12:16:30;;;;;;;11.70;5.40;;;;;;;;;;5050498;28;20396;-69
2023/08/18 12:18:56;;;;;;;22.67;5.78;;;;;;;;;;5033673;28;20063;-69
2023/08/18 12:21:22;;;;;;;16.67;5.57;;;;;;;;;;5051610;28;20374;-69
2023/08/18 12:23:47;;;;;;;17.10;5.68;;;;;;;;;;5033747;28;20471;-69
2023/08/18 12:26:15;;;;;;;23.27;6.38;;;;;;;;;;5049530;28;20538;-69
2023/08/18 12:28:41;;;;;;;15.20;5.75;;;;;;;;;;5049266;28;20491;-69
2023/08/18 12:31:06;;;;;;;14.57;5.85;;;;;;;;;;5032774;28;20090;-69
2023/08/18 12:33:32;;;;;;;15.88;6.07;;;;;;;;;;5049221;28;20056;-69
2023/08/18 12:35:57;;;;;;;16.15;6.15;;;;;;;;;;5049276;28;20102;-70
2023/08/18 12:38:23;;;;;;;21.83;6.30;;;;;;;;;;5032724;28;20495;-70
2023/08/18 12:40:49;;;;;;;12.70;4.90;;;;;;;;;;5035105;28;20087;-69
2023/08/18 12:43:15;;;;;;;14.35;5.30;;;;;;;;;;5019795;28;20040;-69
2023/08/18 12:45:41;;;;;;;14.13;5.13;;;;;;;;;;5052943;28;20518;-69
2023/08/18 12:48:07;;;;;;;10.65;4.63;;;;;;;;;;5052857;28;20033;-69
2023/08/18 12:50:32;;;;;;;12.48;5.07;;;;;;;;;;5035924;28;20037;-69
2023/08/18 12:52:58;;;;;;;10.90;4.70;;;;;;;;;;5052640;28;20044;-69
2023/08/18 12:55:23;;;;;;;13.52;4.60;;;;;;;;;;5052757;28;20045;-69
2023/08/18 12:57:49;;;;;;;7.82;4.15;;;;;;;;;;5054148;28;20056;-69
2023/08/18 13:00:17;;;;;;;11.93;5.00;;;;;;;;;;5037580;28;20036;-70
2023/08/18 13:02:42;;;;;;;12.52;5.10;;;;;;;;;;5054116;28;20041;-70
2023/08/18 13:05:08;;;;;;;10.52;5.25;;;;;;;;;;5053356;28;20115;-70
2023/08/18 13:07:33;;;;;;;15.80;5.05;;;;;;;;;;5053129;28;20032;-69
2023/08/18 13:09:59;;;;;;;12.82;6.03;;;;;;;;;;5054380;28;20132;-69
2023/08/18 13:12:25;;;;;;;25.52;5.75;;;;;;;;;;5054433;28;20033;-69
2023/08/18 13:14:50;;;;;;;14.45;5.25;;;;;;;;;;5036640;28;20033;-69
2023/08/18 13:17:16;;;;;;;18.98;5.80;;;;;;;;;;5053234;28;20065;-69
2023/08/18 13:19:41;;;;;;;18.50;5.63;;;;;;;;;;5054022;28;20033;-70
2023/08/18 13:22:07;;;;;;;15.98;5.40;;;;;;;;;;5053103;28;20053;-69
2023/08/18 13:24:33;;;;;;;17.60;6.22;;;;;;;;;;5052708;28;20053;-69
2023/08/18 13:26:58;;;;;;;15.52;5.35;;;;;;;;;;5053829;28;20140;-69
2023/08/18 13:29:24;;;;;;;19.08;5.55;;;;;;;;;;5053898;28;20502;-69
2023/08/18 13:31:50;;;;;;;7.65;3.67;;;;;;;;;;5053840;28;20534;-69
2023/08/18 13:34:15;;;;;;;10.43;3.92;;;;;;;;;;5053816;28;20395;-69
2023/08/18 13:36:41;;;;;;;12.52;4.10;;;;;;;;;;5036146;28;20126;-70
2023/08/18 13:39:07;;;;;;;7.35;4.00;;;;;;;;;;5053672;28;20033;-70
2023/08/18 13:41:33;;;;;;;7.45;3.88;;;;;;;;;;5052693;28;20388;-69
2023/08/18 13:44:02;;;;;;;9.07;3.80;;;;;;;;;;5035996;28;20053;-69
2023/08/18 13:46:31;;;;;;;9.32;3.80;;;;;;;;;;5052446;28;20467;-69
2023/08/18 13:48:57;;;;;;;9.32;3.70;;;;;;;;;;5053403;28;20044;-69
2023/08/18 13:51:23;;;;;;;9.70;4.10;;;;;;;;;;5053416;28;20044;-69
2023/08/18 13:53:48;;;;;;;10.52;4.18;;;;;;;;;;5054451;28;20037;-69
2023/08/18 13:56:14;;;;;;;10.00;4.25;;;;;;;;;;5052504;28;20136;-69
2023/08/18 13:58:40;;;;;;;10.60;4.65;;;;;;;;;;5053090;28;20456;-69
2023/08/18 14:01:05;;;;;;;10.73;4.35;;;;;;;;;;5052447;28;20036;-69
2023/08/18 14:03:31;;;;;;;25.17;4.93;;;;;;;;;;5052198;28;20071;-69
2023/08/18 14:05:57;;;;;;;15.07;4.25;;;;;;;;;;5035373;28;20136;-69
2023/08/18 14:08:23;;;;;;;12.68;4.53;;;;;;;;;;5053494;28;20529;-69
2023/08/18 14:10:49;;;;;;;9.88;4.40;;;;;;;;;;5052928;28;20063;-69
2023/08/18 14:13:14;;;;;;;12.77;4.63;;;;;;;;;;5052433;28;20068;-69
2023/08/18 14:15:40;;;;;;;8.52;4.18;;;;;;;;;;5052843;28;20147;-69
2023/08/18 14:18:06;;;;;;;11.95;4.70;;;;;;;;;;5051730;28;20037;-70
2023/08/18 14:20:32;;;;;;;12.90;5.38;;;;;;;;;;5053185;28;20043;-69
2023/08/18 14:22:58;;;;;;;13.73;5.43;;;;;;;;;;5052920;28;20024;-69